Main page
METAR-TAF:

METAR-TAF

Airports :

Blytheville Municipal Airport

Blytheville, Arkansas, United States

latitude: 35-56-20N, longitude: 089-49-57W, elevation: 256 ft

Current weather observation

The report was made 54 minutes ago, at 04:53 UTC
Calm wind
Temperature 46°F
Humidity 66%
Pressure 30.22 in. Hg
Visibility: 10 miles
Clear sky

METAR: KHKA 220453Z AUTO 00000KT 10SM CLR 08/02 A3022 RMK AO2 SLP234 T00830022 $

Time: 00:47 (05:47 UTC)


TAF: missing

Weather observations and forecasts of more than 4000 airports (METAR and TAF reports).

The available stations are represented by yellow and red dots on the map.

Hover mouse over dot to see the name of the station.

Then click to see weather observations and forecasts.

To change the map : click on the green buttons with a black cross to zoom in, on the green button with a dash to zoom out, or on the green arrows for adjacent maps.


METAR-TAF: